createdAt,value
2018-02-05T00:00:01.188Z,32.80
2018-02-05T00:01:01.237Z,30.40
2018-02-05T00:02:01.197Z,32.20
2018-02-05T00:03:01.263Z,30.90
2018-02-05T00:04:01.283Z,30.70
2018-02-05T00:05:01.328Z,32.30
2018-02-05T00:06:01.291Z,30.60
2018-02-05T00:07:01.250Z,32.50
2018-02-05T00:08:01.258Z,32.30
2018-02-05T00:09:01.266Z,30.60
2018-02-05T00:10:01.289Z,31.30
2018-02-05T00:11:01.289Z,28.70
2018-02-05T00:12:01.298Z,31.20
2018-02-05T00:13:01.310Z,29.30
2018-02-05T00:14:01.334Z,28.20
2018-02-05T00:15:01.328Z,30.40
2018-02-05T00:16:01.355Z,29.10
2018-02-05T00:17:01.365Z,29.50
2018-02-05T00:18:01.359Z,30.80
2018-02-05T00:19:01.522Z,30.50
2018-02-05T00:20:01.397Z,31.90
2018-02-05T00:21:01.451Z,30.00
2018-02-05T00:22:01.403Z,30.40
2018-02-05T00:23:01.414Z,30.20
2018-02-05T00:24:01.423Z,29.30
2018-02-05T00:25:01.435Z,31.20
2018-02-05T00:26:01.443Z,30.90
2018-02-05T00:27:01.463Z,29.80
2018-02-05T00:28:01.607Z,30.40
2018-02-05T00:29:01.470Z,29.50
2018-02-05T00:30:01.485Z,27.60
2018-02-05T00:31:01.491Z,29.20
2018-02-05T00:32:01.508Z,27.60
2018-02-05T00:33:02.312Z,30.70
2018-02-05T00:35:01.538Z,29.10
2018-02-05T00:36:02.341Z,29.10
2018-02-05T00:37:01.552Z,28.10
2018-02-05T00:38:01.572Z,29.20
2018-02-05T00:39:01.573Z,28.50
2018-02-05T00:40:01.582Z,28.60
2018-02-05T00:41:01.594Z,29.30
2018-02-05T00:43:01.765Z,29.30
2018-02-05T00:44:01.628Z,29.90
2018-02-05T00:45:01.634Z,30.00
2018-02-05T00:46:01.874Z,29.00
2018-02-05T00:47:01.655Z,29.90
2018-02-05T00:48:01.664Z,29.10
2018-02-05T00:49:01.674Z,29.80
2018-02-05T00:50:01.694Z,28.40
2018-02-05T00:51:01.696Z,29.50
2018-02-05T00:52:01.856Z,30.90
2018-02-05T00:53:01.715Z,29.30
2018-02-05T00:54:01.736Z,28.70
2018-02-05T00:55:01.838Z,31.10
2018-02-05T00:56:01.745Z,29.10
2018-02-05T00:57:01.806Z,30.90
2018-02-05T00:58:01.928Z,30.70
2018-02-05T00:59:01.927Z,32.10
2018-02-05T01:00:01.786Z,30.30
2018-02-05T01:01:01.815Z,31.70
2018-02-05T01:02:01.808Z,31.20
2018-02-05T01:03:01.817Z,29.50
2018-02-05T01:04:01.830Z,29.20
2018-02-05T01:05:01.847Z,30.20
2018-02-05T01:06:02.407Z,31.70
2018-02-05T01:07:02.073Z,27.90
2018-02-05T01:08:01.965Z,31.00
2018-02-05T01:09:02.052Z,29.90
2018-02-05T01:10:01.884Z,32.80
2018-02-05T01:11:01.894Z,31.70
2018-02-05T01:12:02.055Z,28.70
2018-02-05T01:13:02.762Z,31.20
2018-02-05T01:14:02.076Z,32.60
2018-02-05T01:15:02.084Z,31.30
2018-02-05T01:16:02.117Z,29.60
2018-02-05T01:17:01.962Z,33.50
2018-02-05T01:18:01.963Z,31.30
2018-02-05T01:19:01.974Z,31.10
2018-02-05T01:20:02.133Z,33.60
2018-02-05T01:21:01.992Z,30.80
2018-02-05T01:22:02.008Z,34.00
2018-02-05T01:23:02.013Z,33.60
2018-02-05T01:24:02.022Z,31.80
2018-02-05T01:25:02.031Z,33.70
2018-02-05T01:26:02.049Z,32.90
2018-02-05T01:27:02.053Z,33.50
2018-02-05T01:28:02.067Z,31.50
2018-02-05T01:29:02.074Z,32.10
2018-02-05T01:30:02.266Z,33.00
2018-02-05T01:31:02.190Z,31.00
2018-02-05T01:32:02.101Z,29.80
2018-02-05T01:33:02.109Z,33.00
2018-02-05T01:35:02.166Z,31.70
2018-02-05T01:36:02.161Z,31.30
2018-02-05T01:37:02.253Z,30.90
2018-02-05T01:38:02.610Z,31.00
2018-02-05T01:39:02.450Z,29.80
2018-02-05T01:41:02.241Z,33.10
2018-02-05T01:42:02.198Z,32.50
2018-02-05T01:43:02.357Z,30.00
2018-02-05T01:44:02.217Z,31.60
2018-02-05T01:45:02.229Z,29.90
2018-02-05T01:46:02.537Z,30.80
2018-02-05T01:47:02.247Z,30.40
2018-02-05T01:48:02.307Z,29.90
2018-02-05T01:49:02.364Z,29.70
2018-02-05T01:50:02.521Z,31.30
2018-02-05T01:51:02.287Z,31.00
2018-02-05T01:52:02.297Z,31.30
2018-02-05T01:53:02.405Z,29.90
2018-02-05T01:54:02.416Z,27.60
2018-02-05T01:55:02.325Z,29.00
2018-02-05T01:56:02.336Z,30.20
2018-02-05T01:57:02.495Z,28.90
2018-02-05T01:58:02.456Z,30.70
2018-02-05T01:59:02.365Z,30.10
2018-02-05T02:00:02.375Z,29.80
2018-02-05T02:01:02.384Z,30.10
2018-02-05T02:02:02.393Z,28.70
2018-02-05T02:03:02.431Z,31.60
2018-02-05T02:04:02.418Z,29.80
2018-02-05T02:07:02.797Z,28.70
2018-02-05T02:08:02.452Z,30.60
2018-02-05T02:09:02.479Z,30.30
2018-02-05T02:10:02.474Z,29.80
2018-02-05T02:11:02.481Z,27.90
2018-02-05T02:12:02.498Z,30.00
2018-02-05T02:14:02.573Z,29.30
2018-02-05T02:15:02.520Z,28.00
2018-02-05T02:16:02.617Z,27.50
2018-02-05T02:17:02.784Z,28.80
2018-02-05T02:19:02.580Z,27.50
2018-02-05T02:20:02.569Z,27.80
2018-02-05T02:21:02.579Z,27.90
2018-02-05T02:22:02.925Z,29.60
2018-02-05T02:23:02.598Z,27.60
2018-02-05T02:24:02.608Z,29.60
2018-02-05T02:25:02.769Z,28.00
2018-02-05T02:26:02.628Z,29.10
2018-02-05T02:27:02.636Z,29.20
2018-02-05T02:28:02.647Z,28.70
2018-02-05T02:29:03.067Z,28.20
2018-02-05T02:30:02.996Z,29.70
2018-02-05T02:31:03.444Z,29.20
2018-02-05T02:32:02.686Z,27.70
2018-02-05T02:33:02.701Z,29.60
2018-02-05T02:34:02.926Z,29.30
2018-02-05T02:35:02.722Z,30.00
2018-02-05T02:36:02.749Z,32.50
2018-02-05T02:37:03.001Z,30.90
2018-02-05T02:38:02.744Z,29.20
2018-02-05T02:39:02.754Z,31.70
2018-02-05T02:40:02.764Z,29.30
2018-02-05T02:41:02.774Z,27.80
2018-02-05T02:42:02.784Z,29.20
2018-02-05T02:45:02.811Z,30.00
2018-02-05T02:46:02.825Z,29.90
2018-02-05T02:47:02.830Z,30.20
2018-02-05T02:48:02.845Z,30.30
2018-02-05T02:49:02.999Z,29.40
2018-02-05T02:50:02.858Z,30.90
2018-02-05T02:51:02.870Z,33.80
2018-02-05T02:52:02.881Z,30.00
2018-02-05T02:53:02.990Z,29.00
2018-02-05T02:54:02.900Z,29.20
2018-02-05T02:55:03.114Z,31.90
2018-02-05T02:56:02.920Z,30.70
2018-02-05T02:57:02.930Z,33.60
2018-02-05T02:58:02.938Z,31.60
2018-02-05T02:59:03.048Z,28.90
2018-02-05T03:00:02.975Z,32.20
2018-02-05T03:01:02.969Z,31.80
2018-02-05T03:02:02.983Z,29.90
2018-02-05T03:03:02.988Z,31.60
2018-02-05T03:04:03.009Z,30.70
2018-02-05T03:05:03.012Z,33.50
2018-02-05T03:06:03.038Z,33.70
2018-02-05T03:08:03.186Z,30.10
2018-02-05T03:09:04.002Z,29.20
2018-02-05T03:10:03.812Z,32.40
2018-02-05T03:11:03.114Z,32.30
2018-02-05T03:12:03.082Z,33.90
2018-02-05T03:13:03.283Z,30.50
2018-02-05T03:14:03.706Z,32.10
2018-02-05T03:15:03.358Z,32.20
2018-02-05T03:17:03.223Z,32.40
2018-02-05T03:18:05.112Z,33.60
2018-02-05T03:20:03.801Z,33.70
2018-02-05T03:21:04.343Z,32.00
2018-02-05T03:22:04.443Z,32.70
2018-02-05T03:23:03.179Z,33.20
2018-02-05T03:24:03.192Z,31.10
2018-02-05T03:25:03.199Z,34.10
2018-02-05T03:26:03.217Z,34.30
2018-02-05T03:27:03.219Z,33.40
2018-02-05T03:28:03.224Z,31.50
2018-02-05T03:29:03.236Z,34.60
2018-02-05T03:30:03.245Z,33.20
2018-02-05T03:31:03.257Z,33.30
2018-02-05T03:32:03.274Z,32.40
2018-02-05T03:33:03.273Z,33.20
2018-02-05T03:34:03.285Z,33.70
2018-02-05T03:35:03.293Z,32.10
2018-02-05T03:36:03.303Z,33.30
2018-02-05T03:37:03.312Z,31.20
2018-02-05T03:38:03.337Z,31.20
2018-02-05T03:39:03.331Z,32.10
2018-02-05T03:41:03.584Z,30.50
2018-02-05T03:42:03.359Z,31.20
2018-02-05T03:43:03.376Z,29.70
2018-02-05T03:44:03.480Z,28.70
2018-02-05T03:47:03.546Z,31.40
2018-02-05T03:48:03.776Z,30.70
2018-02-05T03:50:03.434Z,29.70
2018-02-05T03:51:04.197Z,31.70
2018-02-05T03:52:03.461Z,31.80
2018-02-05T03:54:03.480Z,32.20
2018-02-05T03:55:03.634Z,30.70
2018-02-05T03:56:03.497Z,30.60
2018-02-05T03:57:03.503Z,30.30
2018-02-05T03:58:03.511Z,29.60
2018-02-05T03:59:03.519Z,28.90
2018-02-05T04:00:03.583Z,28.80
2018-02-05T04:01:03.540Z,29.80
2018-02-05T04:02:03.547Z,28.70
2018-02-05T04:03:03.560Z,29.80
2018-02-05T04:04:03.666Z,28.30
2018-02-05T04:05:03.576Z,29.20
2018-02-05T04:06:03.587Z,27.10
2018-02-05T04:07:03.801Z,28.60
2018-02-05T04:08:03.608Z,27.50
2018-02-05T04:09:03.616Z,29.00
2018-02-05T04:10:03.624Z,27.40
2018-02-05T04:11:03.636Z,26.70
2018-02-05T04:12:03.699Z,29.70
2018-02-05T04:13:04.677Z,26.70
2018-02-05T04:16:03.982Z,28.50
2018-02-05T04:18:03.781Z,28.40
2018-02-05T04:22:03.918Z,28.30
2018-02-05T04:23:03.866Z,27.80
2018-02-05T04:24:03.759Z,27.20
2018-02-05T04:25:03.768Z,26.70
2018-02-05T04:26:03.777Z,27.50
2018-02-05T04:27:03.813Z,27.90
2018-02-05T04:28:03.801Z,27.90
2018-02-05T04:29:03.807Z,27.50
2018-02-05T04:30:03.818Z,26.40
2018-02-05T04:31:03.848Z,27.80
2018-02-05T04:32:03.835Z,25.70
2018-02-05T04:33:03.845Z,27.20
2018-02-05T04:34:03.855Z,25.90
2018-02-05T04:35:04.018Z,25.10
2018-02-05T04:36:03.894Z,25.80
2018-02-05T04:37:03.886Z,25.70
2018-02-05T04:38:03.896Z,24.00
2018-02-05T04:39:03.905Z,25.30
2018-02-05T04:40:04.395Z,26.00
2018-02-05T04:41:03.929Z,27.90
2018-02-05T04:42:03.933Z,26.10
2018-02-05T04:43:03.944Z,27.30
2018-02-05T04:44:03.952Z,25.80
2018-02-05T04:46:03.978Z,26.40
2018-02-05T04:47:04.938Z,26.40
2018-02-05T04:48:04.894Z,26.00
2018-02-05T04:50:04.944Z,26.80
2018-02-05T04:51:04.222Z,25.10
2018-02-05T04:53:04.553Z,25.70
2018-02-05T04:54:04.058Z,25.80
2018-02-05T04:55:04.143Z,26.70
2018-02-05T04:56:04.074Z,26.50
2018-02-05T04:57:04.086Z,24.60
2018-02-05T04:58:04.096Z,25.00
2018-02-05T04:59:04.124Z,26.30
2018-02-05T05:00:04.111Z,26.20
2018-02-05T05:01:04.121Z,24.70
2018-02-05T05:02:04.233Z,25.40
2018-02-05T05:03:04.143Z,26.20
2018-02-05T05:04:04.155Z,26.80
2018-02-05T05:05:04.161Z,26.50
2018-02-05T05:06:04.172Z,24.30
2018-02-05T05:07:04.481Z,26.20
2018-02-05T05:08:04.186Z,24.90
2018-02-05T05:09:04.200Z,27.40
2018-02-05T05:10:04.210Z,27.90
2018-02-05T05:11:04.226Z,26.30
2018-02-05T05:14:04.253Z,25.10
2018-02-05T05:15:05.448Z,25.10
2018-02-05T05:17:04.315Z,25.60
2018-02-05T05:18:04.402Z,28.30
2018-02-05T05:19:04.354Z,26.80
2018-02-05T05:20:04.335Z,28.00
2018-02-05T05:21:05.423Z,27.80
2018-02-05T05:22:04.331Z,27.60
2018-02-05T05:23:04.338Z,27.10
2018-02-05T05:24:04.365Z,25.00
2018-02-05T05:26:04.861Z,29.80
2018-02-05T05:27:05.025Z,25.50
2018-02-05T05:28:04.489Z,27.70
2018-02-05T05:29:04.425Z,27.90
2018-02-05T05:30:04.424Z,26.70
2018-02-05T05:31:04.417Z,25.80
2018-02-05T05:33:04.433Z,26.80
2018-02-05T05:34:04.481Z,25.60
2018-02-05T05:35:04.460Z,27.40
2018-02-05T05:37:04.587Z,28.10
2018-02-05T05:38:04.789Z,27.10
2018-02-05T05:39:04.497Z,27.90
2018-02-05T05:40:04.508Z,27.40
2018-02-05T05:41:04.563Z,26.90
2018-02-05T05:43:04.580Z,28.10
2018-02-05T05:44:04.600Z,27.50
2018-02-05T05:47:04.647Z,29.20
2018-02-05T05:50:04.951Z,28.10
2018-02-05T05:51:05.802Z,27.40
2018-02-05T05:53:05.969Z,28.80
2018-02-05T05:56:05.264Z,27.10
2018-02-05T05:57:06.032Z,27.50
2018-02-05T05:58:04.768Z,27.40
2018-02-05T05:59:04.697Z,27.40
2018-02-05T06:00:05.524Z,28.90
2018-02-05T06:01:05.896Z,27.90
2018-02-05T06:02:04.738Z,26.20
2018-02-05T06:03:04.865Z,29.30
2018-02-05T06:04:04.768Z,29.00
2018-02-05T06:05:04.819Z,30.20
2018-02-05T06:06:05.925Z,29.50
2018-02-05T06:07:04.869Z,28.70
2018-02-05T06:08:05.432Z,28.70
2018-02-05T06:10:04.812Z,29.50
2018-02-05T06:11:04.987Z,29.60
2018-02-05T06:12:04.954Z,28.70
2018-02-05T06:13:04.885Z,30.90
2018-02-05T06:15:04.951Z,31.70
2018-02-05T06:16:05.009Z,33.40
2018-02-05T06:17:04.908Z,29.80
2018-02-05T06:20:04.936Z,29.50
2018-02-05T06:21:05.988Z,30.80
2018-02-05T06:22:05.173Z,31.90
2018-02-05T06:23:05.207Z,34.70
2018-02-05T06:24:05.229Z,31.70
2018-02-05T06:25:05.132Z,32.20
2018-02-05T06:26:05.209Z,31.40
2018-02-05T06:27:04.970Z,32.50
2018-02-05T06:28:04.977Z,32.00
2018-02-05T06:29:04.989Z,29.30
2018-02-05T06:30:04.998Z,33.10
2018-02-05T06:31:05.007Z,34.10
2018-02-05T06:32:05.118Z,32.30
2018-02-05T06:33:05.026Z,33.70
2018-02-05T06:34:05.039Z,31.00
2018-02-05T06:36:05.543Z,31.50
2018-02-05T06:37:05.544Z,34.90
2018-02-05T06:39:05.900Z,42.10
2018-02-05T06:41:06.472Z,35.70
2018-02-05T06:42:06.677Z,34.00
2018-02-05T06:43:06.597Z,36.90
2018-02-05T06:44:05.861Z,31.10
2018-02-05T06:45:06.508Z,34.10
2018-02-05T06:46:05.357Z,36.40
2018-02-05T06:47:05.223Z,32.30
2018-02-05T06:48:05.683Z,32.40
2018-02-05T06:49:06.383Z,34.20
2018-02-05T06:50:05.528Z,34.40
2018-02-05T06:55:05.387Z,35.80
2018-02-05T06:56:05.937Z,34.60
2018-02-05T06:57:07.334Z,31.50
2018-02-05T06:59:07.455Z,36.20
2018-02-05T07:01:06.505Z,34.30
2018-02-05T07:02:05.326Z,35.40
2018-02-05T07:03:06.922Z,34.20
2018-02-05T07:04:05.647Z,35.00
2018-02-05T07:06:06.395Z,34.00
2018-02-05T07:07:08.683Z,33.70
2018-02-05T07:08:05.543Z,43.40
2018-02-05T07:11:05.427Z,33.30
2018-02-05T07:12:06.985Z,34.50
2018-02-05T07:14:05.463Z,32.80
2018-02-05T07:15:06.663Z,34.70
2018-02-05T07:16:06.906Z,33.90
2018-02-05T07:17:05.478Z,33.80
2018-02-05T07:18:05.485Z,31.40
2018-02-05T07:19:05.513Z,35.00
2018-02-05T07:20:05.768Z,32.60
2018-02-05T07:21:05.519Z,32.60
2018-02-05T07:23:05.586Z,35.80
2018-02-05T07:24:05.941Z,30.40
2018-02-05T07:26:07.042Z,33.60
2018-02-05T07:30:06.072Z,32.40
2018-02-05T07:31:05.769Z,31.70
2018-02-05T07:32:06.370Z,32.20
2018-02-05T07:36:06.396Z,31.00
2018-02-05T07:38:05.700Z,32.40
2018-02-05T07:39:06.686Z,31.10
2018-02-05T07:41:08.032Z,29.10
2018-02-05T07:43:07.202Z,31.20
2018-02-05T07:47:05.802Z,29.80
2018-02-05T07:48:05.792Z,31.00
2018-02-05T07:49:05.803Z,31.00
2018-02-05T07:50:06.553Z,29.50
2018-02-05T07:51:06.197Z,32.50
2018-02-05T07:52:07.852Z,28.70
2018-02-05T07:54:06.612Z,28.20
2018-02-05T07:56:06.954Z,28.30
2018-02-05T07:57:09.652Z,27.70
2018-02-05T08:00:09.303Z,25.40
2018-02-05T08:03:07.003Z,27.40
2018-02-05T08:04:06.444Z,30.70
2018-02-05T08:05:06.800Z,27.60
2018-02-05T08:07:06.411Z,27.10
2018-02-05T08:08:07.236Z,27.90
2018-02-05T08:09:06.425Z,27.60
2018-02-05T08:10:06.282Z,28.30
2018-02-05T08:11:06.799Z,29.20
2018-02-05T08:13:06.995Z,27.80
2018-02-05T08:14:06.145Z,25.20
2018-02-05T08:15:08.005Z,26.60
2018-02-05T08:16:07.642Z,24.50
2018-02-05T08:17:06.630Z,29.20
2018-02-05T08:19:07.525Z,24.20
2018-02-05T08:22:06.450Z,24.90
2018-02-05T08:23:06.952Z,26.30
2018-02-05T08:24:06.213Z,26.20
2018-02-05T08:25:07.340Z,26.70
2018-02-05T08:27:07.251Z,26.00
2018-02-05T08:28:07.524Z,27.70
2018-02-05T08:29:07.486Z,26.20
2018-02-05T08:31:07.119Z,27.10
2018-02-05T08:32:09.359Z,28.20
2018-02-05T08:33:06.479Z,28.80
2018-02-05T08:34:07.253Z,26.30
2018-02-05T08:35:06.487Z,26.40
2018-02-05T08:36:06.837Z,25.00
2018-02-05T08:37:08.165Z,26.70
2018-02-05T08:39:06.712Z,26.40
2018-02-05T08:45:08.245Z,28.50
2018-02-05T08:46:07.662Z,29.80
2018-02-05T08:48:07.722Z,29.60
2018-02-05T08:56:14.434Z,29.50
2018-02-05T08:58:07.775Z,27.70
2018-02-05T08:59:08.061Z,29.50
2018-02-05T09:04:20.718Z,30.80
2018-02-05T09:05:06.952Z,28.00
2018-02-05T09:06:07.289Z,28.70
2018-02-05T09:08:06.652Z,28.80
2018-02-05T09:09:06.619Z,29.10
2018-02-05T09:11:07.009Z,29.30
2018-02-05T09:12:06.840Z,31.30
2018-02-05T09:13:06.724Z,32.20
2018-02-05T09:16:08.360Z,30.30
2018-02-05T09:17:06.859Z,30.00
2018-02-05T09:18:06.856Z,27.10
2018-02-05T09:19:08.209Z,30.00
2018-02-05T09:22:09.754Z,34.70
2018-02-05T09:23:08.371Z,28.80
2018-02-05T09:24:06.787Z,28.70
2018-02-05T09:27:06.907Z,31.00
2018-02-05T09:28:06.830Z,29.50
2018-02-05T09:30:09.037Z,29.90
2018-02-05T09:31:07.135Z,30.80
2018-02-05T09:32:06.860Z,28.30
2018-02-05T09:33:07.132Z,29.40
2018-02-05T09:34:08.174Z,33.30
2018-02-05T09:35:07.040Z,31.50
2018-02-05T09:36:06.965Z,31.60
2018-02-05T09:37:07.463Z,31.50
2018-02-05T09:38:07.653Z,29.60
2018-02-05T09:40:08.798Z,32.70
2018-02-05T09:41:06.983Z,30.80
2018-02-05T09:42:06.963Z,30.20
2018-02-05T09:43:06.976Z,31.90
2018-02-05T09:44:07.000Z,30.40
2018-02-05T09:45:07.082Z,29.60
2018-02-05T09:46:07.834Z,31.00
2018-02-05T09:47:07.206Z,30.50
2018-02-05T09:48:07.286Z,31.90
2018-02-05T09:49:07.307Z,30.50
2018-02-05T09:50:08.981Z,32.60
2018-02-05T09:51:09.238Z,28.90
2018-02-05T09:52:07.858Z,30.30
2018-02-05T09:53:09.803Z,31.90
2018-02-05T09:54:10.388Z,29.80
2018-02-05T09:55:08.437Z,30.70
2018-02-05T09:56:09.497Z,30.50
2018-02-05T09:57:07.132Z,34.40
2018-02-05T09:58:07.552Z,31.10
2018-02-05T10:00:07.511Z,31.20
2018-02-05T10:01:07.172Z,31.00
2018-02-05T10:02:07.188Z,31.60
2018-02-05T10:04:07.384Z,32.20
2018-02-05T10:05:07.314Z,32.00
2018-02-05T10:06:07.856Z,32.70
2018-02-05T10:07:07.306Z,30.80
2018-02-05T10:08:07.328Z,31.20
2018-02-05T10:11:08.281Z,32.80
2018-02-05T10:12:07.301Z,30.00
2018-02-05T10:13:07.570Z,32.00
2018-02-05T10:14:07.363Z,32.20
2018-02-05T10:15:07.417Z,33.00
2018-02-05T10:16:07.468Z,32.10
2018-02-05T10:17:07.614Z,30.70
2018-02-05T10:18:07.866Z,32.90
2018-02-05T10:19:08.319Z,30.00
2018-02-05T10:20:07.474Z,33.30
2018-02-05T10:21:07.418Z,32.40
2018-02-05T10:22:07.549Z,30.40
2018-02-05T10:23:07.790Z,32.50
2018-02-05T10:24:09.555Z,32.30
2018-02-05T10:26:08.145Z,33.60
2018-02-05T10:27:07.919Z,31.20
2018-02-05T10:28:07.732Z,30.70
2018-02-05T10:29:08.748Z,34.00
2018-02-05T10:31:09.913Z,33.80
2018-02-05T10:32:11.242Z,32.20
2018-02-05T10:33:08.159Z,34.20
2018-02-05T10:34:07.698Z,31.00
2018-02-05T10:40:08.985Z,32.90
2018-02-05T10:41:09.603Z,30.10
2018-02-05T10:42:08.149Z,31.70
2018-02-05T10:43:08.772Z,32.30
2018-02-05T10:44:09.171Z,33.90
2018-02-05T10:45:09.045Z,32.10
2018-02-05T10:46:11.021Z,30.00
2018-02-05T10:47:09.684Z,32.60
2018-02-05T10:48:07.722Z,33.70
2018-02-05T10:49:07.735Z,32.30
2018-02-05T10:50:07.700Z,30.80
2018-02-05T10:51:07.712Z,31.60
2018-02-05T10:54:09.476Z,31.40
2018-02-05T10:57:07.926Z,29.70
2018-02-05T10:59:08.608Z,30.40
2018-02-05T11:01:08.000Z,29.20
2018-02-05T11:02:07.901Z,29.60
2018-02-05T11:03:07.848Z,29.20
2018-02-05T11:04:07.935Z,29.30
2018-02-05T11:05:08.868Z,30.00
2018-02-05T11:06:08.038Z,29.80
2018-02-05T11:08:10.192Z,28.00
2018-02-05T11:09:10.523Z,28.30
2018-02-05T11:10:08.091Z,29.70
2018-02-05T11:11:12.014Z,30.30
2018-02-05T11:12:12.020Z,28.90
2018-02-05T11:13:10.937Z,29.50
2018-02-05T11:15:11.975Z,27.80
2018-02-05T11:16:10.983Z,28.90
2018-02-05T11:17:10.318Z,29.00
2018-02-05T11:18:08.611Z,31.60
2018-02-05T11:19:08.033Z,27.90
2018-02-05T11:20:08.108Z,27.80
2018-02-05T11:21:09.913Z,29.70
2018-02-05T11:22:21.997Z,28.60
2018-02-05T11:23:09.660Z,27.50
2018-02-05T11:24:10.798Z,29.60
2018-02-05T11:26:08.096Z,28.50
2018-02-05T11:27:08.126Z,29.10
2018-02-05T11:28:08.726Z,28.40
2018-02-05T11:29:08.133Z,27.60
2018-02-05T11:30:08.605Z,26.70
2018-02-05T11:32:08.895Z,26.10
2018-02-05T11:33:09.207Z,26.80
2018-02-05T11:37:10.008Z,25.50
2018-02-05T11:38:08.231Z,25.40
2018-02-05T11:39:08.248Z,27.60
2018-02-05T11:40:08.451Z,26.30
2018-02-05T11:41:08.611Z,28.90
2018-02-05T11:42:08.284Z,26.70
2018-02-05T11:43:08.913Z,26.70
2018-02-05T11:45:08.307Z,25.90
2018-02-05T11:47:08.329Z,25.10
2018-02-05T11:48:08.340Z,27.70
2018-02-05T11:49:08.357Z,26.50
2018-02-05T11:50:09.149Z,25.70
2018-02-05T11:52:08.441Z,27.20
2018-02-05T11:53:08.514Z,27.80
2018-02-05T11:55:09.363Z,26.70
2018-02-05T11:56:09.858Z,24.50
2018-02-05T11:58:08.725Z,24.20
2018-02-05T12:00:09.094Z,24.00
2018-02-05T12:01:11.840Z,23.30
2018-02-05T12:02:10.144Z,26.40
2018-02-05T12:03:10.040Z,24.60
2018-02-05T12:06:08.591Z,24.30
2018-02-05T12:07:08.679Z,23.70
2018-02-05T12:08:08.575Z,24.50
2018-02-05T12:09:08.619Z,25.00
2018-02-05T12:10:08.601Z,22.90
2018-02-05T12:11:08.645Z,25.70
2018-02-05T12:13:10.061Z,24.20
2018-02-05T12:15:11.139Z,22.50
2018-02-05T12:20:09.483Z,24.10
2018-02-05T12:21:09.510Z,22.50
2018-02-05T12:22:09.250Z,22.40
2018-02-05T12:24:09.289Z,22.70
2018-02-05T12:25:09.759Z,21.40
2018-02-05T12:26:09.002Z,20.70
2018-02-05T12:27:09.421Z,21.50
2018-02-05T12:29:09.654Z,23.00
2018-02-05T12:30:10.139Z,21.30
2018-02-05T12:31:08.833Z,22.40
2018-02-05T12:32:08.927Z,22.90
2018-02-05T12:34:09.095Z,21.20
2018-02-05T12:35:10.587Z,23.30
2018-02-05T12:39:08.905Z,22.40
2018-02-05T12:40:09.017Z,20.20
2018-02-05T12:41:09.832Z,23.10
2018-02-05T12:46:09.020Z,23.00
2018-02-05T12:47:09.174Z,22.70
2018-02-05T12:48:09.528Z,21.80
2018-02-05T12:50:10.197Z,21.20
2018-02-05T12:51:09.389Z,20.60
2018-02-05T12:52:09.475Z,21.90
2018-02-05T12:54:09.470Z,22.20
2018-02-05T12:56:09.116Z,22.20
2018-02-05T12:57:09.403Z,20.40
2018-02-05T12:58:10.301Z,20.90
2018-02-05T13:00:09.144Z,22.00
2018-02-05T13:01:10.090Z,24.40
2018-02-05T13:02:16.692Z,22.60
2018-02-05T13:06:09.610Z,22.00
2018-02-05T13:07:09.370Z,20.80
2018-02-05T13:10:09.307Z,22.80
2018-02-05T13:12:09.425Z,23.70
2018-02-05T13:13:09.602Z,22.70
2018-02-05T13:15:10.316Z,25.50
2018-02-05T13:16:09.531Z,21.60
2018-02-05T13:17:10.890Z,24.20
2018-02-05T13:18:10.443Z,21.60
2018-02-05T13:19:10.454Z,23.70
2018-02-05T13:21:09.961Z,23.10
2018-02-05T13:23:09.408Z,23.80
2018-02-05T13:24:09.422Z,22.50
2018-02-05T13:25:09.957Z,23.60
2018-02-05T13:26:09.733Z,25.50
2018-02-05T13:27:10.252Z,23.90
2018-02-05T13:28:09.476Z,23.40
2018-02-05T13:30:09.616Z,23.40
2018-02-05T13:31:09.539Z,23.70
2018-02-05T13:32:10.252Z,25.00
2018-02-05T13:35:09.990Z,25.70
2018-02-05T13:37:09.748Z,21.80
2018-02-05T13:38:09.980Z,23.60
2018-02-05T13:40:09.654Z,24.60
2018-02-05T13:41:09.747Z,22.70
2018-02-05T13:42:09.627Z,28.40
2018-02-05T13:43:09.686Z,23.40
2018-02-05T13:44:10.158Z,23.90
2018-02-05T13:46:09.874Z,23.20
2018-02-05T13:47:09.809Z,22.60
2018-02-05T13:48:09.894Z,24.70
2018-02-05T13:50:10.588Z,26.00
2018-02-05T13:51:10.018Z,22.10
2018-02-05T13:52:09.785Z,25.00
2018-02-05T13:53:10.159Z,22.10
2018-02-05T13:54:09.855Z,24.50
2018-02-05T13:55:09.802Z,24.60
2018-02-05T13:57:09.786Z,21.30
2018-02-05T13:58:10.174Z,23.00
2018-02-05T14:00:10.155Z,19.90
2018-02-05T14:01:11.135Z,22.20
2018-02-05T14:03:09.919Z,22.30
2018-02-05T14:05:10.554Z,22.30
2018-02-05T14:12:09.946Z,23.70
2018-02-05T14:13:09.990Z,21.10
2018-02-05T14:14:10.613Z,22.30
2018-02-05T14:15:11.088Z,21.70
2018-02-05T14:16:10.219Z,19.10
2018-02-05T14:17:12.069Z,22.10
2018-02-05T14:18:10.773Z,18.90
2018-02-05T14:20:10.397Z,20.80
2018-02-05T14:22:10.738Z,21.00
2018-02-05T14:23:11.142Z,24.00
2018-02-05T14:24:10.499Z,23.00
2018-02-05T14:26:11.063Z,21.90
2018-02-05T14:31:10.478Z,29.00
2018-02-05T14:32:11.354Z,24.20
2018-02-05T14:33:11.863Z,22.90
2018-02-05T14:34:10.285Z,23.40
2018-02-05T14:36:11.098Z,22.50
2018-02-05T14:37:10.645Z,21.30
2018-02-05T14:38:10.265Z,22.20
2018-02-05T14:40:11.804Z,23.50
2018-02-05T14:41:10.812Z,22.50
2018-02-05T14:43:12.497Z,23.00
2018-02-05T14:44:10.301Z,20.90
2018-02-05T14:46:11.272Z,22.50
2018-02-05T14:47:11.306Z,21.00
2018-02-05T14:48:11.334Z,22.30
2018-02-05T14:49:11.285Z,23.50
2018-02-05T14:51:12.671Z,20.40
2018-02-05T14:52:12.149Z,23.80
2018-02-05T14:53:10.811Z,20.60
2018-02-05T14:54:10.409Z,22.20
2018-02-05T14:55:10.587Z,23.10
2018-02-05T14:56:11.150Z,22.30
2018-02-05T14:57:11.274Z,22.20
2018-02-05T14:58:11.447Z,21.80
2018-02-05T14:59:10.465Z,22.20
2018-02-05T15:00:10.466Z,20.50
2018-02-05T15:05:11.560Z,22.30
2018-02-05T15:06:11.296Z,22.00
2018-02-05T15:08:11.306Z,21.40
2018-02-05T15:10:12.425Z,21.40
2018-02-05T15:11:10.698Z,22.20
2018-02-05T15:13:11.651Z,22.00
2018-02-05T15:15:12.656Z,22.40
2018-02-05T15:17:12.029Z,22.30
2018-02-05T15:18:12.364Z,22.50
2018-02-05T15:19:11.076Z,20.30
2018-02-05T15:20:11.583Z,23.50
2018-02-05T15:23:12.451Z,21.00
2018-02-05T15:24:10.886Z,22.80
2018-02-05T15:25:12.962Z,22.70
2018-02-05T15:30:11.268Z,21.40
2018-02-05T15:31:12.149Z,23.70
2018-02-05T15:32:11.429Z,19.50
2018-02-05T15:33:11.697Z,21.10
2018-02-05T15:34:11.254Z,21.70
2018-02-05T15:35:12.663Z,21.00
2018-02-05T15:36:11.684Z,22.60
2018-02-05T15:37:11.514Z,22.20
2018-02-05T15:40:11.296Z,20.60
2018-02-05T15:41:11.632Z,22.30
2018-02-05T15:42:13.070Z,22.20
2018-02-05T15:44:12.488Z,23.20
2018-02-05T15:45:11.633Z,21.90
2018-02-05T15:46:13.643Z,22.30
2018-02-05T15:47:18.130Z,23.40
2018-02-05T15:50:11.809Z,21.90
2018-02-05T15:52:13.560Z,22.90
2018-02-05T15:54:13.103Z,23.50
2018-02-05T15:55:12.069Z,19.70
2018-02-05T15:57:12.985Z,20.30
2018-02-05T15:58:11.882Z,20.80
2018-02-05T15:59:11.699Z,20.50
2018-02-05T16:00:11.378Z,22.50
2018-02-05T16:01:11.631Z,24.00
2018-02-05T16:02:12.775Z,23.20
2018-02-05T16:03:11.823Z,24.30
2018-02-05T16:04:12.149Z,23.20
2018-02-05T16:05:11.256Z,25.00
2018-02-05T16:06:12.081Z,22.60
2018-02-05T16:07:11.655Z,23.60
2018-02-05T16:10:12.322Z,25.50
2018-02-05T16:11:12.378Z,24.50
2018-02-05T16:12:12.655Z,23.70
2018-02-05T16:13:12.737Z,22.30
2018-02-05T16:15:11.270Z,24.50
2018-02-05T16:17:11.492Z,24.90
2018-02-05T16:18:12.205Z,22.60
2018-02-05T16:19:12.050Z,25.40
2018-02-05T16:20:11.322Z,23.10
2018-02-05T16:22:11.346Z,26.70
2018-02-05T16:23:11.466Z,23.70
2018-02-05T16:24:13.441Z,24.40
2018-02-05T16:25:11.376Z,22.60
2018-02-05T16:26:12.302Z,24.90
2018-02-05T16:27:11.408Z,24.00
2018-02-05T16:28:11.826Z,25.00
2018-02-05T16:29:12.633Z,24.50
2018-02-05T16:30:12.323Z,25.50
2018-02-05T16:31:13.885Z,22.90
2018-02-05T16:32:12.042Z,23.90
2018-02-05T16:33:12.345Z,23.40
2018-02-05T16:34:12.509Z,25.10
2018-02-05T16:36:13.175Z,22.60
2018-02-05T16:38:12.224Z,23.90
2018-02-05T16:39:12.237Z,25.10
2018-02-05T16:40:13.955Z,24.50
2018-02-05T16:41:13.695Z,23.40
2018-02-05T16:44:11.939Z,23.70
2018-02-05T16:45:12.022Z,24.50
2018-02-05T16:46:12.251Z,24.60
2018-02-05T16:47:13.822Z,24.90
2018-02-05T16:48:11.865Z,25.80